sensor_id;sensor_type;location;lat;lon;timestamp;temperature;humidity
11089;DHT22;5598;48.648;8.908;2023-03-26T00:01:22;5.30;99.90
11089;DHT22;5598;48.648;8.908;2023-03-26T00:03:50;5.40;99.90
11089;DHT22;5598;48.648;8.908;2023-03-26T00:06:20;5.40;99.90
11089;DHT22;5598;48.648;8.908;2023-03-26T00:08:48;5.40;99.90
11089;DHT22;5598;48.648;8.908;2023-03-26T00:11:16;5.50;99.90
11089;DHT22;5598;48.648;8.908;2023-03-26T00:13:45;5.50;99.90
11089;DHT22;5598;48.648;8.908;2023-03-26T00:16:14;5.50;99.90
11089;DHT22;5598;48.648;8.908;2023-03-26T00:18:41;5.50;99.90
11089;DHT22;5598;48.648;8.908;2023-03-26T00:21:11;5.60;99.90
11089;DHT22;5598;48.648;8.908;2023-03-26T00:23:39;5.60;99.90
11089;DHT22;5598;48.648;8.908;2023-03-26T00:26:06;5.60;99.90
11089;DHT22;5598;48.648;8.908;2023-03-26T00:28:35;5.60;99.90
11089;DHT22;5598;48.648;8.908;2023-03-26T00:31:04;5.60;99.90
11089;DHT22;5598;48.648;8.908;2023-03-26T00:33:31;5.70;99.90
11089;DHT22;5598;48.648;8.908;2023-03-26T00:36:04;5.60;99.90
11089;DHT22;5598;48.648;8.908;2023-03-26T00:38:34;5.60;99.90
11089;DHT22;5598;48.648;8.908;2023-03-26T00:41:04;5.60;99.90
11089;DHT22;5598;48.648;8.908;2023-03-26T00:43:33;5.60;99.90
11089;DHT22;5598;48.648;8.908;2023-03-26T00:46:01;5.60;99.90
11089;DHT22;5598;48.648;8.908;2023-03-26T00:48:29;5.60;99.90
11089;DHT22;5598;48.648;8.908;2023-03-26T00:50:56;5.70;99.90
11089;DHT22;5598;48.648;8.908;2023-03-26T00:53:23;5.70;99.90
11089;DHT22;5598;48.648;8.908;2023-03-26T00:55:50;5.80;99.90
11089;DHT22;5598;48.648;8.908;2023-03-26T00:58:17;5.80;99.90
11089;DHT22;5598;48.648;8.908;2023-03-26T01:00:49;5.80;99.90
11089;DHT22;5598;48.648;8.908;2023-03-26T01:03:17;5.70;99.90
11089;DHT22;5598;48.648;8.908;2023-03-26T01:05:49;5.70;99.90
11089;DHT22;5598;48.648;8.908;2023-03-26T01:08:24;5.60;99.90
11089;DHT22;5598;48.648;8.908;2023-03-26T01:10:53;5.60;99.90
11089;DHT22;5598;48.648;8.908;2023-03-26T01:13:28;5.70;99.90
11089;DHT22;5598;48.648;8.908;2023-03-26T01:15:55;5.70;99.90
11089;DHT22;5598;48.648;8.908;2023-03-26T01:18:23;5.60;99.90
11089;DHT22;5598;48.648;8.908;2023-03-26T01:20:54;5.60;99.90
11089;DHT22;5598;48.648;8.908;2023-03-26T01:23:36;5.60;99.90
11089;DHT22;5598;48.648;8.908;2023-03-26T01:26:11;5.60;99.90
11089;DHT22;5598;48.648;8.908;2023-03-26T01:28:42;5.60;99.90
11089;DHT22;5598;48.648;8.908;2023-03-26T01:31:13;5.60;99.90
11089;DHT22;5598;48.648;8.908;2023-03-26T01:33:49;5.60;99.90
11089;DHT22;5598;48.648;8.908;2023-03-26T01:36:23;5.50;99.90
11089;DHT22;5598;48.648;8.908;2023-03-26T01:38:56;5.50;99.90
11089;DHT22;5598;48.648;8.908;2023-03-26T01:41:30;5.50;99.90
11089;DHT22;5598;48.648;8.908;2023-03-26T01:44:02;5.50;99.90
11089;DHT22;5598;48.648;8.908;2023-03-26T01:46:33;5.50;99.90
11089;DHT22;5598;48.648;8.908;2023-03-26T01:49:01;5.50;99.90
11089;DHT22;5598;48.648;8.908;2023-03-26T01:51:31;5.50;99.90
11089;DHT22;5598;48.648;8.908;2023-03-26T01:53:58;5.40;99.90
11089;DHT22;5598;48.648;8.908;2023-03-26T01:56:32;5.40;99.90
11089;DHT22;5598;48.648;8.908;2023-03-26T01:59:11;5.40;99.90
11089;DHT22;5598;48.648;8.908;2023-03-26T02:01:44;5.40;99.90
11089;DHT22;5598;48.648;8.908;2023-03-26T02:04:25;5.30;99.90
11089;DHT22;5598;48.648;8.908;2023-03-26T02:06:59;5.30;99.90
11089;DHT22;5598;48.648;8.908;2023-03-26T02:09:34;5.40;99.90
11089;DHT22;5598;48.648;8.908;2023-03-26T02:12:04;5.40;99.90
11089;DHT22;5598;48.648;8.908;2023-03-26T02:14:32;5.40;99.90
11089;DHT22;5598;48.648;8.908;2023-03-26T02:16:59;5.40;99.90
11089;DHT22;5598;48.648;8.908;2023-03-26T02:19:25;5.30;99.90
11089;DHT22;5598;48.648;8.908;2023-03-26T02:21:52;5.30;99.90
11089;DHT22;5598;48.648;8.908;2023-03-26T02:24:24;5.30;99.90
11089;DHT22;5598;48.648;8.908;2023-03-26T02:26:51;5.20;99.90
11089;DHT22;5598;48.648;8.908;2023-03-26T02:29:19;5.20;99.90
11089;DHT22;5598;48.648;8.908;2023-03-26T02:31:47;5.20;99.90
11089;DHT22;5598;48.648;8.908;2023-03-26T02:34:14;5.20;99.90
11089;DHT22;5598;48.648;8.908;2023-03-26T02:36:41;5.20;99.90
11089;DHT22;5598;48.648;8.908;2023-03-26T02:39:08;5.20;99.90
11089;DHT22;5598;48.648;8.908;2023-03-26T02:41:35;5.20;99.90
11089;DHT22;5598;48.648;8.908;2023-03-26T02:44:02;5.30;99.90
11089;DHT22;5598;48.648;8.908;2023-03-26T02:46:31;5.30;99.90
11089;DHT22;5598;48.648;8.908;2023-03-26T02:48:58;5.20;99.90
11089;DHT22;5598;48.648;8.908;2023-03-26T02:51:25;5.20;99.90
11089;DHT22;5598;48.648;8.908;2023-03-26T02:53:52;5.20;99.90
11089;DHT22;5598;48.648;8.908;2023-03-26T02:56:19;5.20;99.90
11089;DHT22;5598;48.648;8.908;2023-03-26T02:58:46;5.20;99.90
11089;DHT22;5598;48.648;8.908;2023-03-26T03:01:12;5.20;99.90
11089;DHT22;5598;48.648;8.908;2023-03-26T03:03:44;5.30;99.90
11089;DHT22;5598;48.648;8.908;2023-03-26T03:06:13;5.30;99.90
11089;DHT22;5598;48.648;8.908;2023-03-26T03:08:42;5.30;99.90
11089;DHT22;5598;48.648;8.908;2023-03-26T03:11:12;5.40;99.90
11089;DHT22;5598;48.648;8.908;2023-03-26T03:13:39;5.30;99.90
11089;DHT22;5598;48.648;8.908;2023-03-26T03:16:07;5.30;99.90
11089;DHT22;5598;48.648;8.908;2023-03-26T03:18:34;5.30;99.90
11089;DHT22;5598;48.648;8.908;2023-03-26T03:21:04;5.30;99.90
11089;DHT22;5598;48.648;8.908;2023-03-26T03:23:32;5.30;99.90
11089;DHT22;5598;48.648;8.908;2023-03-26T03:25:58;5.30;99.90
11089;DHT22;5598;48.648;8.908;2023-03-26T03:28:27;5.30;99.90
11089;DHT22;5598;48.648;8.908;2023-03-26T03:30:55;5.30;99.90
11089;DHT22;5598;48.648;8.908;2023-03-26T03:33:22;5.30;99.90
11089;DHT22;5598;48.648;8.908;2023-03-26T03:35:49;5.20;99.90
11089;DHT22;5598;48.648;8.908;2023-03-26T03:38:17;5.30;99.90
11089;DHT22;5598;48.648;8.908;2023-03-26T03:40:44;5.30;99.90
11089;DHT22;5598;48.648;8.908;2023-03-26T03:43:11;5.30;99.90
11089;DHT22;5598;48.648;8.908;2023-03-26T03:45:38;5.20;99.90
11089;DHT22;5598;48.648;8.908;2023-03-26T03:48:05;5.20;99.90
11089;DHT22;5598;48.648;8.908;2023-03-26T03:50:32;5.30;99.90
11089;DHT22;5598;48.648;8.908;2023-03-26T03:52:59;5.40;99.90
11089;DHT22;5598;48.648;8.908;2023-03-26T03:55:27;5.30;99.90
11089;DHT22;5598;48.648;8.908;2023-03-26T03:57:54;5.30;99.90
11089;DHT22;5598;48.648;8.908;2023-03-26T04:00:22;5.40;99.90
11089;DHT22;5598;48.648;8.908;2023-03-26T04:02:49;5.40;99.90
11089;DHT22;5598;48.648;8.908;2023-03-26T04:05:18;5.40;99.90
11089;DHT22;5598;48.648;8.908;2023-03-26T04:07:45;5.50;99.90
11089;DHT22;5598;48.648;8.908;2023-03-26T04:10:14;5.50;99.90
11089;DHT22;5598;48.648;8.908;2023-03-26T04:12:42;5.50;99.90
11089;DHT22;5598;48.648;8.908;2023-03-26T04:15:10;5.60;99.90
11089;DHT22;5598;48.648;8.908;2023-03-26T04:17:37;5.60;99.90
11089;DHT22;5598;48.648;8.908;2023-03-26T04:20:08;5.60;99.90
11089;DHT22;5598;48.648;8.908;2023-03-26T04:22:39;5.60;99.90
11089;DHT22;5598;48.648;8.908;2023-03-26T04:25:07;5.60;99.90
11089;DHT22;5598;48.648;8.908;2023-03-26T04:27:34;5.60;99.90
11089;DHT22;5598;48.648;8.908;2023-03-26T04:30:04;5.60;99.90
11089;DHT22;5598;48.648;8.908;2023-03-26T04:32:31;5.60;99.90
11089;DHT22;5598;48.648;8.908;2023-03-26T04:34:59;5.50;99.90
11089;DHT22;5598;48.648;8.908;2023-03-26T04:37:30;5.50;99.90
11089;DHT22;5598;48.648;8.908;2023-03-26T04:39:59;5.50;99.90
11089;DHT22;5598;48.648;8.908;2023-03-26T04:42:26;5.50;99.90
11089;DHT22;5598;48.648;8.908;2023-03-26T04:44:53;5.50;99.90
11089;DHT22;5598;48.648;8.908;2023-03-26T04:47:22;5.50;99.90
11089;DHT22;5598;48.648;8.908;2023-03-26T04:49:49;5.50;99.90
11089;DHT22;5598;48.648;8.908;2023-03-26T04:52:15;5.50;99.90
11089;DHT22;5598;48.648;8.908;2023-03-26T04:54:44;5.50;99.90
11089;DHT22;5598;48.648;8.908;2023-03-26T04:57:16;5.50;99.90
11089;DHT22;5598;48.648;8.908;2023-03-26T04:59:43;5.50;99.90
11089;DHT22;5598;48.648;8.908;2023-03-26T05:02:11;5.50;99.90
11089;DHT22;5598;48.648;8.908;2023-03-26T05:04:40;5.50;99.90
11089;DHT22;5598;48.648;8.908;2023-03-26T05:07:09;5.60;99.90
11089;DHT22;5598;48.648;8.908;2023-03-26T05:09:36;5.60;99.90
11089;DHT22;5598;48.648;8.908;2023-03-26T05:12:03;5.50;99.90
11089;DHT22;5598;48.648;8.908;2023-03-26T05:14:30;5.50;99.90
11089;DHT22;5598;48.648;8.908;2023-03-26T05:16:57;5.50;99.90
11089;DHT22;5598;48.648;8.908;2023-03-26T05:19:24;5.60;99.90
11089;DHT22;5598;48.648;8.908;2023-03-26T05:21:52;5.60;99.90
11089;DHT22;5598;48.648;8.908;2023-03-26T05:24:19;5.60;99.90
11089;DHT22;5598;48.648;8.908;2023-03-26T05:26:45;5.60;99.90
11089;DHT22;5598;48.648;8.908;2023-03-26T05:29:13;5.60;99.90
11089;DHT22;5598;48.648;8.908;2023-03-26T05:31:40;5.60;99.90
11089;DHT22;5598;48.648;8.908;2023-03-26T05:34:07;5.70;99.90
11089;DHT22;5598;48.648;8.908;2023-03-26T05:36:34;5.70;99.90
11089;DHT22;5598;48.648;8.908;2023-03-26T05:39:02;5.80;99.90
11089;DHT22;5598;48.648;8.908;2023-03-26T05:41:29;5.80;99.90
11089;DHT22;5598;48.648;8.908;2023-03-26T05:43:56;5.90;99.90
11089;DHT22;5598;48.648;8.908;2023-03-26T05:46:23;5.90;99.90
11089;DHT22;5598;48.648;8.908;2023-03-26T05:48:50;5.90;99.90
11089;DHT22;5598;48.648;8.908;2023-03-26T05:51:18;6.00;99.90
11089;DHT22;5598;48.648;8.908;2023-03-26T05:53:47;6.00;99.90
11089;DHT22;5598;48.648;8.908;2023-03-26T05:56:16;6.00;99.90
11089;DHT22;5598;48.648;8.908;2023-03-26T05:58:42;6.10;99.90
11089;DHT22;5598;48.648;8.908;2023-03-26T06:01:12;6.00;99.90
11089;DHT22;5598;48.648;8.908;2023-03-26T06:03:43;6.00;99.90
11089;DHT22;5598;48.648;8.908;2023-03-26T06:06:12;5.90;99.90
11089;DHT22;5598;48.648;8.908;2023-03-26T06:08:40;5.90;99.90
11089;DHT22;5598;48.648;8.908;2023-03-26T06:11:07;5.90;99.90
11089;DHT22;5598;48.648;8.908;2023-03-26T06:13:36;5.90;99.90
11089;DHT22;5598;48.648;8.908;2023-03-26T06:16:03;5.90;99.90
11089;DHT22;5598;48.648;8.908;2023-03-26T06:18:29;5.90;99.90
11089;DHT22;5598;48.648;8.908;2023-03-26T06:20:57;5.90;99.90
11089;DHT22;5598;48.648;8.908;2023-03-26T06:23:24;5.90;99.90
11089;DHT22;5598;48.648;8.908;2023-03-26T06:25:50;6.00;99.90
11089;DHT22;5598;48.648;8.908;2023-03-26T06:28:17;6.00;99.90
11089;DHT22;5598;48.648;8.908;2023-03-26T06:30:46;6.10;99.90
11089;DHT22;5598;48.648;8.908;2023-03-26T06:33:12;6.20;99.90
11089;DHT22;5598;48.648;8.908;2023-03-26T06:35:39;6.30;99.90
11089;DHT22;5598;48.648;8.908;2023-03-26T06:38:07;6.30;99.90
11089;DHT22;5598;48.648;8.908;2023-03-26T06:40:34;6.20;99.90
11089;DHT22;5598;48.648;8.908;2023-03-26T06:43:01;6.20;99.90
11089;DHT22;5598;48.648;8.908;2023-03-26T06:45:28;6.20;99.90
11089;DHT22;5598;48.648;8.908;2023-03-26T06:47:57;6.10;99.90
11089;DHT22;5598;48.648;8.908;2023-03-26T06:50:24;6.00;99.90
11089;DHT22;5598;48.648;8.908;2023-03-26T06:52:52;6.00;99.90
11089;DHT22;5598;48.648;8.908;2023-03-26T06:55:19;6.00;99.90
11089;DHT22;5598;48.648;8.908;2023-03-26T06:57:47;6.00;99.90
11089;DHT22;5598;48.648;8.908;2023-03-26T07:00:15;6.10;99.90
11089;DHT22;5598;48.648;8.908;2023-03-26T07:02:42;6.10;99.90
11089;DHT22;5598;48.648;8.908;2023-03-26T07:05:11;6.20;99.90
11089;DHT22;5598;48.648;8.908;2023-03-26T07:07:38;6.10;99.90
11089;DHT22;5598;48.648;8.908;2023-03-26T07:10:06;6.10;99.90
11089;DHT22;5598;48.648;8.908;2023-03-26T07:12:33;6.10;99.90
11089;DHT22;5598;48.648;8.908;2023-03-26T07:15:01;6.00;99.90
11089;DHT22;5598;48.648;8.908;2023-03-26T07:17:28;6.20;99.90
11089;DHT22;5598;48.648;8.908;2023-03-26T07:19:55;6.20;99.90
11089;DHT22;5598;48.648;8.908;2023-03-26T07:22:24;6.30;99.90
11089;DHT22;5598;48.648;8.908;2023-03-26T07:24:52;6.30;99.90
11089;DHT22;5598;48.648;8.908;2023-03-26T07:27:30;6.40;99.90
11089;DHT22;5598;48.648;8.908;2023-03-26T07:30:03;6.50;99.90
11089;DHT22;5598;48.648;8.908;2023-03-26T07:32:38;6.30;99.90
11089;DHT22;5598;48.648;8.908;2023-03-26T07:35:13;6.40;99.90
11089;DHT22;5598;48.648;8.908;2023-03-26T07:37:49;6.40;99.90
11089;DHT22;5598;48.648;8.908;2023-03-26T07:40:33;6.40;99.90
11089;DHT22;5598;48.648;8.908;2023-03-26T07:43:11;6.40;99.90
11089;DHT22;5598;48.648;8.908;2023-03-26T07:45:41;6.40;99.90
11089;DHT22;5598;48.648;8.908;2023-03-26T07:48:11;6.40;99.90
11089;DHT22;5598;48.648;8.908;2023-03-26T07:50:41;6.50;99.90
11089;DHT22;5598;48.648;8.908;2023-03-26T07:53:10;6.50;99.90
11089;DHT22;5598;48.648;8.908;2023-03-26T07:55:45;6.60;99.90
11089;DHT22;5598;48.648;8.908;2023-03-26T07:58:24;6.60;99.90
11089;DHT22;5598;48.648;8.908;2023-03-26T08:00:58;6.60;99.90
11089;DHT22;5598;48.648;8.908;2023-03-26T08:06:32;6.70;99.90
11089;DHT22;5598;48.648;8.908;2023-03-26T08:09:10;6.70;99.90
11089;DHT22;5598;48.648;8.908;2023-03-26T08:11:46;6.80;99.90
11089;DHT22;5598;48.648;8.908;2023-03-26T08:17:09;6.90;99.90
11089;DHT22;5598;48.648;8.908;2023-03-26T08:19:49;6.80;99.90
11089;DHT22;5598;48.648;8.908;2023-03-26T08:22:22;6.80;99.90
11089;DHT22;5598;48.648;8.908;2023-03-26T08:25:13;6.80;99.90
11089;DHT22;5598;48.648;8.908;2023-03-26T08:27:49;6.80;99.90
11089;DHT22;5598;48.648;8.908;2023-03-26T08:30:20;6.80;99.90
11089;DHT22;5598;48.648;8.908;2023-03-26T08:32:52;6.80;99.90
11089;DHT22;5598;48.648;8.908;2023-03-26T08:35:19;6.80;99.90
11089;DHT22;5598;48.648;8.908;2023-03-26T08:37:46;6.90;99.90
11089;DHT22;5598;48.648;8.908;2023-03-26T08:40:24;6.90;99.90
11089;DHT22;5598;48.648;8.908;2023-03-26T08:43:20;6.80;99.90
11089;DHT22;5598;48.648;8.908;2023-03-26T08:46:04;6.70;99.90
11089;DHT22;5598;48.648;8.908;2023-03-26T08:49:00;6.70;99.90
11089;DHT22;5598;48.648;8.908;2023-03-26T08:52:06;6.80;99.90
11089;DHT22;5598;48.648;8.908;2023-03-26T08:54:46;6.90;99.90
11089;DHT22;5598;48.648;8.908;2023-03-26T08:57:52;6.90;99.90
11089;DHT22;5598;48.648;8.908;2023-03-26T09:00:36;7.10;99.90
11089;DHT22;5598;48.648;8.908;2023-03-26T09:03:22;7.30;99.90
11089;DHT22;5598;48.648;8.908;2023-03-26T09:09:41;7.60;99.90
11089;DHT22;5598;48.648;8.908;2023-03-26T09:12:38;7.80;99.90
11089;DHT22;5598;48.648;8.908;2023-03-26T09:15:36;7.70;99.90
11089;DHT22;5598;48.648;8.908;2023-03-26T09:18:31;7.80;99.90
11089;DHT22;5598;48.648;8.908;2023-03-26T09:27:08;9.10;99.90
11089;DHT22;5598;48.648;8.908;2023-03-26T09:30:14;9.60;99.90
11089;DHT22;5598;48.648;8.908;2023-03-26T09:33:09;9.50;99.90
11089;DHT22;5598;48.648;8.908;2023-03-26T09:35:54;9.70;99.90
11089;DHT22;5598;48.648;8.908;2023-03-26T09:38:41;9.70;99.90
11089;DHT22;5598;48.648;8.908;2023-03-26T09:41:13;9.60;99.90
11089;DHT22;5598;48.648;8.908;2023-03-26T09:44:04;10.50;99.90
11089;DHT22;5598;48.648;8.908;2023-03-26T09:46:40;11.10;99.90
11089;DHT22;5598;48.648;8.908;2023-03-26T09:49:24;11.00;99.90
11089;DHT22;5598;48.648;8.908;2023-03-26T09:52:07;10.70;99.90
11089;DHT22;5598;48.648;8.908;2023-03-26T09:54:59;10.40;99.90
11089;DHT22;5598;48.648;8.908;2023-03-26T09:57:41;9.80;99.90
11089;DHT22;5598;48.648;8.908;2023-03-26T10:00:21;9.50;99.90
11089;DHT22;5598;48.648;8.908;2023-03-26T10:03:13;10.00;99.90
11089;DHT22;5598;48.648;8.908;2023-03-26T10:06:00;10.70;99.90
11089;DHT22;5598;48.648;8.908;2023-03-26T10:12:07;11.80;99.90
11089;DHT22;5598;48.648;8.908;2023-03-26T10:15:23;12.10;99.90
11089;DHT22;5598;48.648;8.908;2023-03-26T10:18:20;11.60;99.90
11089;DHT22;5598;48.648;8.908;2023-03-26T10:21:05;10.90;99.90
11089;DHT22;5598;48.648;8.908;2023-03-26T10:24:08;10.50;99.90
11089;DHT22;5598;48.648;8.908;2023-03-26T10:27:06;10.40;99.90
11089;DHT22;5598;48.648;8.908;2023-03-26T10:29:59;10.20;99.90
11089;DHT22;5598;48.648;8.908;2023-03-26T10:32:30;10.40;99.90
11089;DHT22;5598;48.648;8.908;2023-03-26T10:35:16;10.60;99.90
11089;DHT22;5598;48.648;8.908;2023-03-26T10:37:57;10.90;99.90
11089;DHT22;5598;48.648;8.908;2023-03-26T10:40:32;11.40;99.90
11089;DHT22;5598;48.648;8.908;2023-03-26T10:43:21;11.90;99.90
11089;DHT22;5598;48.648;8.908;2023-03-26T10:46:13;12.30;99.90
11089;DHT22;5598;48.648;8.908;2023-03-26T10:48:59;12.40;99.90
11089;DHT22;5598;48.648;8.908;2023-03-26T10:51:46;13.60;99.90
11089;DHT22;5598;48.648;8.908;2023-03-26T10:54:25;13.90;99.90
11089;DHT22;5598;48.648;8.908;2023-03-26T10:56:56;14.00;99.90
11089;DHT22;5598;48.648;8.908;2023-03-26T10:59:24;12.80;99.90
11089;DHT22;5598;48.648;8.908;2023-03-26T11:02:00;12.20;99.90
11089;DHT22;5598;48.648;8.908;2023-03-26T11:04:38;11.80;99.90
11089;DHT22;5598;48.648;8.908;2023-03-26T11:07:11;11.90;99.90
11089;DHT22;5598;48.648;8.908;2023-03-26T11:09:49;11.70;99.90
11089;DHT22;5598;48.648;8.908;2023-03-26T11:12:24;12.30;99.90
11089;DHT22;5598;48.648;8.908;2023-03-26T11:15:01;12.80;99.90
11089;DHT22;5598;48.648;8.908;2023-03-26T11:17:37;13.50;99.90
11089;DHT22;5598;48.648;8.908;2023-03-26T11:20:09;14.50;99.90
11089;DHT22;5598;48.648;8.908;2023-03-26T11:22:49;14.70;97.50
11089;DHT22;5598;48.648;8.908;2023-03-26T11:25:33;14.80;96.80
11089;DHT22;5598;48.648;8.908;2023-03-26T11:28:14;15.00;95.50
11089;DHT22;5598;48.648;8.908;2023-03-26T11:30:47;14.50;95.50
11089;DHT22;5598;48.648;8.908;2023-03-26T11:33:21;14.00;95.80
11089;DHT22;5598;48.648;8.908;2023-03-26T11:35:50;14.40;92.70
11089;DHT22;5598;48.648;8.908;2023-03-26T11:38:20;14.60;93.50
11089;DHT22;5598;48.648;8.908;2023-03-26T11:40:52;14.60;94.00
11089;DHT22;5598;48.648;8.908;2023-03-26T11:43:24;15.20;94.00
11089;DHT22;5598;48.648;8.908;2023-03-26T11:45:53;15.80;91.30
11089;DHT22;5598;48.648;8.908;2023-03-26T11:48:24;16.00;93.10
11089;DHT22;5598;48.648;8.908;2023-03-26T11:50:56;15.80;89.00
11089;DHT22;5598;48.648;8.908;2023-03-26T11:53:28;16.10;88.70
11089;DHT22;5598;48.648;8.908;2023-03-26T11:56:00;15.70;85.60
11089;DHT22;5598;48.648;8.908;2023-03-26T11:58:31;15.70;83.50
11089;DHT22;5598;48.648;8.908;2023-03-26T12:01:03;15.20;82.30
11089;DHT22;5598;48.648;8.908;2023-03-26T12:03:31;15.70;90.30
11089;DHT22;5598;48.648;8.908;2023-03-26T12:05:58;15.90;83.00
11089;DHT22;5598;48.648;8.908;2023-03-26T12:08:32;15.70;86.10
11089;DHT22;5598;48.648;8.908;2023-03-26T12:11:05;16.20;82.30
11089;DHT22;5598;48.648;8.908;2023-03-26T12:13:36;16.40;85.40
11089;DHT22;5598;48.648;8.908;2023-03-26T12:16:09;16.20;78.80
11089;DHT22;5598;48.648;8.908;2023-03-26T12:18:38;16.10;78.60
11089;DHT22;5598;48.648;8.908;2023-03-26T12:21:07;16.80;82.70
11089;DHT22;5598;48.648;8.908;2023-03-26T12:23:52;16.70;79.00
11089;DHT22;5598;48.648;8.908;2023-03-26T12:26:30;16.70;84.90
11089;DHT22;5598;48.648;8.908;2023-03-26T12:29:06;17.20;79.70
11089;DHT22;5598;48.648;8.908;2023-03-26T12:31:41;16.80;79.70
11089;DHT22;5598;48.648;8.908;2023-03-26T12:34:14;15.40;79.40
11089;DHT22;5598;48.648;8.908;2023-03-26T12:36:48;14.90;82.70
11089;DHT22;5598;48.648;8.908;2023-03-26T12:39:33;14.80;81.10
11089;DHT22;5598;48.648;8.908;2023-03-26T12:42:04;15.30;80.50
11089;DHT22;5598;48.648;8.908;2023-03-26T12:44:34;16.00;79.90
11089;DHT22;5598;48.648;8.908;2023-03-26T12:47:13;16.10;76.80
11089;DHT22;5598;48.648;8.908;2023-03-26T12:49:41;16.30;75.00
11089;DHT22;5598;48.648;8.908;2023-03-26T12:52:24;16.10;75.90
11089;DHT22;5598;48.648;8.908;2023-03-26T12:54:59;16.20;78.00
11089;DHT22;5598;48.648;8.908;2023-03-26T12:57:33;16.60;78.10
11089;DHT22;5598;48.648;8.908;2023-03-26T13:00:26;16.80;78.90
11089;DHT22;5598;48.648;8.908;2023-03-26T13:06:14;16.80;71.40
11089;DHT22;5598;48.648;8.908;2023-03-26T13:09:19;17.00;75.50
11089;DHT22;5598;48.648;8.908;2023-03-26T13:11:58;17.00;77.00
11089;DHT22;5598;48.648;8.908;2023-03-26T13:14:43;17.10;73.30
11089;DHT22;5598;48.648;8.908;2023-03-26T13:17:20;16.70;70.70
11089;DHT22;5598;48.648;8.908;2023-03-26T13:19:53;17.00;75.00
11089;DHT22;5598;48.648;8.908;2023-03-26T13:22:30;16.70;72.20
11089;DHT22;5598;48.648;8.908;2023-03-26T13:25:07;16.60;73.40
11089;DHT22;5598;48.648;8.908;2023-03-26T13:27:44;16.60;71.00
11089;DHT22;5598;48.648;8.908;2023-03-26T13:30:30;15.70;69.20
11089;DHT22;5598;48.648;8.908;2023-03-26T13:33:11;15.90;67.40
11089;DHT22;5598;48.648;8.908;2023-03-26T13:35:48;15.80;69.10
11089;DHT22;5598;48.648;8.908;2023-03-26T13:38:25;14.70;74.40
11089;DHT22;5598;48.648;8.908;2023-03-26T13:41:01;14.30;72.40
11089;DHT22;5598;48.648;8.908;2023-03-26T13:43:44;13.80;71.70
11089;DHT22;5598;48.648;8.908;2023-03-26T13:46:24;13.40;73.40
11089;DHT22;5598;48.648;8.908;2023-03-26T13:48:56;13.20;77.20
11089;DHT22;5598;48.648;8.908;2023-03-26T13:51:28;13.00;77.30
11089;DHT22;5598;48.648;8.908;2023-03-26T13:53:59;12.90;78.70
11089;DHT22;5598;48.648;8.908;2023-03-26T13:56:33;12.60;79.80
11089;DHT22;5598;48.648;8.908;2023-03-26T13:59:04;12.10;90.40
11089;DHT22;5598;48.648;8.908;2023-03-26T14:01:37;10.80;98.70
11089;DHT22;5598;48.648;8.908;2023-03-26T14:04:13;9.20;99.90
11089;DHT22;5598;48.648;8.908;2023-03-26T14:06:47;8.60;99.90
11089;DHT22;5598;48.648;8.908;2023-03-26T14:09:22;8.20;99.90
11089;DHT22;5598;48.648;8.908;2023-03-26T14:12:31;8.00;99.90
11089;DHT22;5598;48.648;8.908;2023-03-26T14:15:04;8.10;99.90
11089;DHT22;5598;48.648;8.908;2023-03-26T14:17:37;8.30;99.90
11089;DHT22;5598;48.648;8.908;2023-03-26T14:20:41;8.40;99.90
11089;DHT22;5598;48.648;8.908;2023-03-26T14:23:37;8.50;99.90
11089;DHT22;5598;48.648;8.908;2023-03-26T14:26:14;8.60;99.90
11089;DHT22;5598;48.648;8.908;2023-03-26T14:29:15;8.60;99.90
11089;DHT22;5598;48.648;8.908;2023-03-26T14:31:49;8.50;99.90
11089;DHT22;5598;48.648;8.908;2023-03-26T14:34:38;8.40;99.90
11089;DHT22;5598;48.648;8.908;2023-03-26T14:37:22;8.30;99.90
11089;DHT22;5598;48.648;8.908;2023-03-26T14:40:14;8.40;99.90
11089;DHT22;5598;48.648;8.908;2023-03-26T14:42:51;8.40;99.90
11089;DHT22;5598;48.648;8.908;2023-03-26T14:55:44;8.30;99.90
11089;DHT22;5598;48.648;8.908;2023-03-26T14:58:43;8.30;99.90
11089;DHT22;5598;48.648;8.908;2023-03-26T15:01:26;8.30;99.90
11089;DHT22;5598;48.648;8.908;2023-03-26T15:07:28;8.10;99.90
11089;DHT22;5598;48.648;8.908;2023-03-26T15:13:15;7.70;99.90
11089;DHT22;5598;48.648;8.908;2023-03-26T15:16:28;7.70;99.90
11089;DHT22;5598;48.648;8.908;2023-03-26T15:19:23;7.70;99.90
11089;DHT22;5598;48.648;8.908;2023-03-26T15:22:26;7.50;99.90
11089;DHT22;5598;48.648;8.908;2023-03-26T15:25:36;7.30;99.90
11089;DHT22;5598;48.648;8.908;2023-03-26T15:38:13;6.50;99.90
11089;DHT22;5598;48.648;8.908;2023-03-26T15:40:59;6.20;99.90
11089;DHT22;5598;48.648;8.908;2023-03-26T15:46:56;6.20;99.90
11089;DHT22;5598;48.648;8.908;2023-03-26T15:49:29;6.10;99.90
11089;DHT22;5598;48.648;8.908;2023-03-26T15:52:07;6.00;99.90
11089;DHT22;5598;48.648;8.908;2023-03-26T15:54:46;6.10;99.90
11089;DHT22;5598;48.648;8.908;2023-03-26T15:57:22;6.20;99.90
11089;DHT22;5598;48.648;8.908;2023-03-26T16:00:05;6.20;99.90
11089;DHT22;5598;48.648;8.908;2023-03-26T16:02:46;6.10;99.90
11089;DHT22;5598;48.648;8.908;2023-03-26T16:05:39;6.20;99.90
11089;DHT22;5598;48.648;8.908;2023-03-26T16:08:16;6.30;99.90
11089;DHT22;5598;48.648;8.908;2023-03-26T16:10:50;6.20;99.90
11089;DHT22;5598;48.648;8.908;2023-03-26T16:13:33;6.10;99.90
11089;DHT22;5598;48.648;8.908;2023-03-26T16:19:44;6.00;99.90
11089;DHT22;5598;48.648;8.908;2023-03-26T16:22:15;6.10;99.90
11089;DHT22;5598;48.648;8.908;2023-03-26T16:25:28;6.00;99.90
11089;DHT22;5598;48.648;8.908;2023-03-26T16:28:23;6.10;99.90
11089;DHT22;5598;48.648;8.908;2023-03-26T16:31:17;6.10;99.90
11089;DHT22;5598;48.648;8.908;2023-03-26T16:33:50;6.10;99.90
11089;DHT22;5598;48.648;8.908;2023-03-26T16:36:29;6.20;99.90
11089;DHT22;5598;48.648;8.908;2023-03-26T16:39:21;6.20;99.90
11089;DHT22;5598;48.648;8.908;2023-03-26T16:41:54;6.30;99.90
11089;DHT22;5598;48.648;8.908;2023-03-26T16:44:29;6.30;99.90
11089;DHT22;5598;48.648;8.908;2023-03-26T16:47:05;6.40;99.90
11089;DHT22;5598;48.648;8.908;2023-03-26T16:49:46;6.40;99.90
11089;DHT22;5598;48.648;8.908;2023-03-26T16:52:35;6.40;99.90
11089;DHT22;5598;48.648;8.908;2023-03-26T16:55:17;6.40;99.90
11089;DHT22;5598;48.648;8.908;2023-03-26T16:57:52;6.30;99.90
11089;DHT22;5598;48.648;8.908;2023-03-26T17:00:35;6.40;99.90
11089;DHT22;5598;48.648;8.908;2023-03-26T17:03:15;6.30;99.90
11089;DHT22;5598;48.648;8.908;2023-03-26T17:05:56;6.30;99.90
11089;DHT22;5598;48.648;8.908;2023-03-26T17:08:34;6.20;99.90
11089;DHT22;5598;48.648;8.908;2023-03-26T17:11:08;6.20;99.90
11089;DHT22;5598;48.648;8.908;2023-03-26T17:13:48;6.10;99.90
11089;DHT22;5598;48.648;8.908;2023-03-26T17:16:22;6.10;99.90
11089;DHT22;5598;48.648;8.908;2023-03-26T17:18:55;6.00;99.90
11089;DHT22;5598;48.648;8.908;2023-03-26T17:21:31;6.00;99.90
11089;DHT22;5598;48.648;8.908;2023-03-26T17:24:06;5.90;99.90
11089;DHT22;5598;48.648;8.908;2023-03-26T17:26:44;5.80;99.90
11089;DHT22;5598;48.648;8.908;2023-03-26T17:29:23;5.80;99.90
11089;DHT22;5598;48.648;8.908;2023-03-26T17:31:58;5.80;99.90
11089;DHT22;5598;48.648;8.908;2023-03-26T17:34:54;5.70;99.90
11089;DHT22;5598;48.648;8.908;2023-03-26T17:37:43;5.60;99.90
11089;DHT22;5598;48.648;8.908;2023-03-26T17:43:50;5.50;99.90
11089;DHT22;5598;48.648;8.908;2023-03-26T17:46:30;5.50;99.90